createdAt,value
2019-02-20T00:00:10.604Z,18.57
2019-02-20T00:02:39.195Z,16.70
2019-02-20T00:05:07.728Z,17.27
2019-02-20T00:07:36.246Z,16.30
2019-02-20T00:10:05.142Z,16.30
2019-02-20T00:12:33.667Z,17.40
2019-02-20T00:15:02.122Z,16.73
2019-02-20T00:17:30.598Z,16.33
2019-02-20T00:19:59.104Z,16.50
2019-02-20T00:22:27.550Z,16.27
2019-02-20T00:24:56.032Z,16.10
2019-02-20T00:27:24.482Z,18.00
2019-02-20T00:29:52.930Z,17.53
2019-02-20T00:32:21.411Z,18.30
2019-02-20T00:34:49.857Z,18.90
2019-02-20T00:37:18.302Z,18.23
2019-02-20T00:39:47.048Z,19.03
2019-02-20T00:42:15.508Z,18.97
2019-02-20T00:44:54.637Z,19.50
2019-02-20T00:47:40.869Z,23.03
2019-02-20T00:50:09.615Z,24.67
2019-02-20T00:52:54.778Z,25.20
2019-02-20T00:55:23.350Z,22.57
2019-02-20T00:57:51.812Z,23.07
2019-02-20T01:00:20.268Z,22.47
2019-02-20T01:02:48.766Z,20.63
2019-02-20T01:05:17.278Z,19.87
2019-02-20T01:07:45.722Z,20.90
2019-02-20T01:10:14.274Z,20.17
2019-02-20T01:12:42.722Z,20.47
2019-02-20T01:15:11.851Z,23.80
2019-02-20T01:17:40.325Z,21.30
2019-02-20T01:20:10.017Z,22.23
2019-02-20T01:22:38.463Z,23.67
2019-02-20T01:25:07.562Z,21.33
2019-02-20T01:27:36.018Z,22.70
2019-02-20T01:30:07.375Z,21.17
2019-02-20T01:32:35.866Z,17.77
2019-02-20T01:35:05.066Z,19.70
2019-02-20T01:37:33.592Z,17.83
2019-02-20T01:40:02.063Z,18.47
2019-02-20T01:42:30.514Z,19.13
2019-02-20T01:44:58.969Z,17.57
2019-02-20T01:47:27.698Z,19.90
2019-02-20T01:49:56.146Z,22.37
2019-02-20T01:52:24.604Z,19.73
2019-02-20T01:54:53.153Z,20.23
2019-02-20T01:57:21.678Z,18.77
2019-02-20T01:59:50.128Z,22.07
2019-02-20T02:02:19.586Z,17.33
2019-02-20T02:04:48.046Z,17.90
2019-02-20T02:07:16.643Z,19.40
2019-02-20T02:09:45.189Z,17.87
2019-02-20T02:12:13.634Z,18.00
2019-02-20T02:14:42.104Z,16.60
2019-02-20T02:17:10.762Z,17.30
2019-02-20T02:19:39.215Z,17.07
2019-02-20T02:22:07.760Z,16.80
2019-02-20T02:24:36.230Z,16.43
2019-02-20T02:27:04.927Z,17.60
2019-02-20T02:29:33.375Z,17.13
2019-02-20T02:32:01.869Z,18.23
2019-02-20T02:34:30.063Z,18.17
2019-02-20T02:36:58.516Z,18.00
2019-02-20T02:39:27.204Z,17.00
2019-02-20T02:41:55.723Z,17.10
2019-02-20T02:44:24.196Z,17.23
2019-02-20T02:46:52.780Z,16.67
2019-02-20T02:49:21.297Z,18.27
2019-02-20T02:51:49.767Z,18.37
2019-02-20T02:54:18.322Z,17.00
2019-02-20T02:56:46.789Z,16.97
2019-02-20T02:59:15.328Z,16.23
2019-02-20T03:01:43.823Z,17.70
2019-02-20T03:04:12.279Z,17.40
2019-02-20T03:06:40.737Z,17.90
2019-02-20T03:09:10.169Z,18.37
2019-02-20T03:11:38.624Z,17.93
2019-02-20T03:14:07.155Z,17.77
2019-02-20T03:16:35.819Z,19.17
2019-02-20T03:19:04.349Z,18.03
2019-02-20T03:21:32.880Z,17.30
2019-02-20T03:24:01.411Z,18.43
2019-02-20T03:26:29.874Z,17.77
2019-02-20T03:28:58.403Z,17.17
2019-02-20T03:31:26.889Z,17.27
2019-02-20T03:33:55.384Z,20.07
2019-02-20T03:36:23.886Z,17.07
2019-02-20T03:38:52.368Z,17.67
2019-02-20T03:41:20.831Z,18.87
2019-02-20T03:43:49.290Z,16.53
2019-02-20T03:46:17.780Z,17.27
2019-02-20T03:48:46.239Z,16.97
2019-02-20T03:51:14.701Z,20.03
2019-02-20T03:53:51.289Z,16.80
2019-02-20T03:56:14.066Z,15.33
2019-02-20T03:58:42.657Z,16.50
2019-02-20T04:01:11.137Z,16.10
2019-02-20T04:03:39.599Z,16.27
2019-02-20T04:06:08.133Z,15.60
2019-02-20T04:08:37.023Z,15.67
2019-02-20T04:11:05.549Z,17.63
2019-02-20T04:13:34.000Z,16.10
2019-02-20T04:16:02.506Z,15.63
2019-02-20T04:18:31.027Z,15.40
2019-02-20T04:20:59.488Z,15.60
2019-02-20T04:23:28.188Z,16.30
2019-02-20T04:25:56.643Z,16.97
2019-02-20T04:28:25.110Z,15.73
2019-02-20T04:30:53.667Z,16.70
2019-02-20T04:33:22.133Z,16.83
2019-02-20T04:35:50.666Z,17.27
2019-02-20T04:38:19.156Z,16.50
2019-02-20T04:40:47.609Z,17.30
2019-02-20T04:43:16.068Z,18.53
2019-02-20T04:45:44.559Z,19.03
2019-02-20T04:48:13.015Z,16.87
2019-02-20T04:50:41.477Z,15.60
2019-02-20T04:53:10.115Z,14.70
2019-02-20T04:55:38.639Z,15.03
2019-02-20T04:58:21.442Z,16.17
2019-02-20T05:00:50.099Z,15.30
2019-02-20T05:03:18.552Z,15.37
2019-02-20T05:05:47.437Z,16.33
2019-02-20T05:08:15.967Z,15.40
2019-02-20T05:10:44.435Z,15.60
2019-02-20T05:13:13.244Z,15.17
2019-02-20T05:15:41.774Z,16.20
2019-02-20T05:18:10.248Z,15.57
2019-02-20T05:20:38.888Z,14.33
2019-02-20T05:23:07.449Z,16.43
2019-02-20T05:25:36.058Z,14.37
2019-02-20T05:28:04.967Z,16.50
2019-02-20T05:30:33.493Z,15.43
2019-02-20T05:33:02.040Z,14.80
2019-02-20T05:35:30.597Z,16.87
2019-02-20T05:37:59.051Z,17.33
2019-02-20T05:40:27.540Z,16.70
2019-02-20T05:42:56.288Z,16.00
2019-02-20T05:45:24.822Z,17.27
2019-02-20T05:47:53.359Z,20.23
2019-02-20T05:50:21.844Z,15.67
2019-02-20T05:52:50.380Z,21.80
2019-02-20T05:55:18.836Z,15.03
2019-02-20T05:57:47.474Z,16.37
2019-02-20T06:00:16.006Z,18.40
2019-02-20T06:02:44.539Z,18.67
2019-02-20T06:05:13.263Z,17.80
2019-02-20T06:07:41.784Z,18.23
2019-02-20T06:10:10.418Z,19.07
2019-02-20T06:12:39.150Z,18.97
2019-02-20T06:15:09.765Z,21.23
2019-02-20T06:17:38.296Z,19.60
2019-02-20T06:20:09.557Z,19.37
2019-02-20T06:22:38.071Z,18.80
2019-02-20T06:25:06.597Z,22.23
2019-02-20T06:27:35.256Z,19.97
2019-02-20T06:30:05.625Z,21.10
2019-02-20T06:32:37.218Z,17.13
2019-02-20T06:35:06.791Z,16.87
2019-02-20T06:37:35.254Z,17.57
2019-02-20T06:40:03.858Z,21.03
2019-02-20T06:42:32.487Z,19.73
2019-02-20T06:45:00.957Z,20.03
2019-02-20T06:47:29.472Z,18.50
2019-02-20T06:49:57.949Z,18.87
2019-02-20T06:52:26.471Z,18.93
2019-02-20T06:54:54.945Z,16.07
2019-02-20T06:57:23.493Z,19.50
2019-02-20T07:00:12.557Z,17.07
2019-02-20T07:02:41.113Z,17.97
2019-02-20T07:05:32.810Z,17.47
2019-02-20T07:08:09.927Z,15.90
2019-02-20T07:10:50.515Z,17.33
2019-02-20T07:13:20.917Z,16.90
2019-02-20T07:16:07.135Z,16.97
2019-02-20T07:18:41.635Z,20.57
2019-02-20T07:21:16.002Z,17.93
2019-02-20T07:23:56.494Z,18.27
2019-02-20T07:26:47.501Z,17.47
2019-02-20T07:29:31.158Z,16.53
2019-02-20T07:31:59.616Z,15.80
2019-02-20T07:34:28.071Z,17.10
2019-02-20T07:36:56.549Z,15.77
2019-02-20T07:39:25.152Z,16.67
2019-02-20T07:41:53.610Z,17.97
2019-02-20T07:44:22.759Z,15.43
2019-02-20T07:46:51.212Z,14.63
2019-02-20T07:49:19.661Z,16.43
2019-02-20T07:51:48.555Z,14.43
2019-02-20T07:54:17.090Z,16.23
2019-02-20T07:56:45.621Z,16.07
2019-02-20T07:59:14.339Z,15.13
2019-02-20T08:01:42.807Z,16.93
2019-02-20T08:04:11.277Z,15.27
2019-02-20T08:06:39.760Z,15.27
2019-02-20T08:09:08.361Z,16.57
2019-02-20T08:11:36.963Z,17.37
2019-02-20T08:14:05.715Z,12.83
2019-02-20T08:16:34.167Z,15.07
2019-02-20T08:19:02.628Z,14.43
2019-02-20T08:21:31.299Z,13.70
2019-02-20T08:23:59.832Z,19.07
2019-02-20T08:26:28.297Z,14.60
2019-02-20T08:28:56.884Z,13.73
2019-02-20T08:31:25.356Z,13.07
2019-02-20T08:33:53.809Z,12.50
2019-02-20T08:36:22.288Z,14.57
2019-02-20T08:38:50.752Z,14.30
2019-02-20T08:41:19.283Z,15.93
2019-02-20T08:43:47.950Z,12.63
2019-02-20T08:46:16.403Z,14.23
2019-02-20T08:48:44.867Z,15.70
2019-02-20T08:51:13.370Z,16.33
2019-02-20T08:53:41.875Z,11.57
2019-02-20T08:56:10.331Z,16.03
2019-02-20T08:58:39.227Z,11.10
2019-02-20T09:01:07.683Z,12.47
2019-02-20T09:03:36.198Z,15.47
2019-02-20T09:06:04.764Z,14.47
2019-02-20T09:08:33.302Z,10.97
2019-02-20T09:11:01.825Z,11.50
2019-02-20T09:13:30.399Z,11.37
2019-02-20T09:15:58.864Z,12.23
2019-02-20T09:18:27.318Z,12.30
2019-02-20T09:20:55.980Z,14.03
2019-02-20T09:23:24.431Z,14.80
2019-02-20T09:25:52.887Z,12.87
2019-02-20T09:28:21.567Z,13.73
2019-02-20T09:30:50.059Z,13.10
2019-02-20T09:33:18.583Z,14.43
2019-02-20T09:35:47.065Z,12.97
2019-02-20T09:38:15.593Z,13.63
2019-02-20T09:40:44.210Z,14.53
2019-02-20T09:43:12.843Z,14.63
2019-02-20T09:45:42.841Z,13.17
2019-02-20T09:48:20.509Z,12.40
2019-02-20T09:50:48.967Z,12.27
2019-02-20T09:53:17.432Z,14.67
2019-02-20T09:55:51.553Z,13.33
2019-02-20T09:58:16.155Z,16.13
2019-02-20T10:00:44.614Z,14.73
2019-02-20T10:03:13.622Z,14.57
2019-02-20T10:05:42.083Z,12.93
2019-02-20T10:08:10.543Z,12.43
2019-02-20T10:10:39.027Z,14.93
2019-02-20T10:13:09.264Z,14.37
2019-02-20T10:15:37.691Z,11.63
2019-02-20T10:18:07.611Z,12.37
2019-02-20T10:20:36.301Z,12.73
2019-02-20T10:23:04.819Z,11.50
2019-02-20T10:25:33.299Z,12.47
2019-02-20T10:28:01.762Z,11.60
2019-02-20T10:30:30.225Z,11.03
2019-02-20T10:32:58.791Z,12.50
2019-02-20T10:35:27.255Z,12.00
2019-02-20T10:37:55.779Z,12.63
2019-02-20T10:40:24.399Z,10.13
2019-02-20T10:42:52.926Z,11.03
2019-02-20T10:45:21.472Z,9.93
2019-02-20T10:47:50.015Z,11.23
2019-02-20T10:50:18.474Z,11.20
2019-02-20T10:52:47.004Z,12.03
2019-02-20T10:55:15.575Z,10.80
2019-02-20T10:57:44.032Z,10.90
2019-02-20T11:00:23.455Z,11.33
2019-02-20T11:02:46.390Z,12.50
2019-02-20T11:05:14.838Z,10.77
2019-02-20T11:07:43.299Z,11.00
2019-02-20T11:10:11.944Z,11.80
2019-02-20T11:12:40.399Z,10.73
2019-02-20T11:15:09.190Z,10.00
2019-02-20T11:17:37.755Z,11.10
2019-02-20T11:20:11.198Z,12.43
2019-02-20T11:22:39.724Z,11.67
2019-02-20T11:25:10.736Z,10.60
2019-02-20T11:27:39.631Z,10.20
2019-02-20T11:30:20.146Z,9.70
2019-02-20T11:32:48.615Z,9.83
2019-02-20T11:35:17.211Z,10.60
2019-02-20T11:37:46.074Z,9.90
2019-02-20T11:40:15.540Z,10.13
2019-02-20T11:42:44.050Z,9.93
2019-02-20T11:45:18.839Z,9.93
2019-02-20T11:47:47.296Z,8.93
2019-02-20T11:50:15.827Z,10.03
2019-02-20T11:52:44.319Z,9.65
2019-02-20T11:55:14.384Z,9.80
2019-02-20T11:57:42.907Z,10.63
2019-02-20T12:00:16.176Z,10.30
2019-02-20T12:02:44.713Z,10.03
2019-02-20T12:05:13.313Z,9.77
2019-02-20T12:07:42.048Z,10.07
2019-02-20T12:10:12.849Z,9.93
2019-02-20T12:12:41.510Z,9.77
2019-02-20T12:15:10.127Z,10.83
2019-02-20T12:17:38.668Z,9.80
2019-02-20T12:20:08.635Z,8.97
2019-02-20T12:22:37.292Z,8.77
2019-02-20T12:25:08.159Z,8.77
2019-02-20T12:27:36.682Z,7.85
2019-02-20T12:30:10.775Z,7.40
2019-02-20T12:32:39.550Z,7.80
2019-02-20T12:35:09.025Z,7.95
2019-02-20T12:37:37.699Z,7.37
2019-02-20T12:40:08.295Z,7.00
2019-02-20T12:42:36.837Z,6.87
2019-02-20T12:45:07.314Z,6.30
2019-02-20T12:47:35.832Z,6.60
2019-02-20T12:50:06.700Z,6.20
2019-02-20T12:52:35.255Z,6.83
2019-02-20T12:55:03.979Z,7.62
2019-02-20T12:57:32.430Z,7.10
2019-02-20T13:00:00.916Z,7.58
2019-02-20T13:02:29.367Z,6.50
2019-02-20T13:04:57.967Z,5.72
2019-02-20T13:07:26.460Z,6.58
2019-02-20T13:09:54.945Z,6.70
2019-02-20T13:12:23.419Z,6.40
2019-02-20T13:14:51.977Z,5.55
2019-02-20T13:17:20.429Z,5.25
2019-02-20T13:19:48.978Z,6.37
2019-02-20T13:22:17.640Z,7.08
2019-02-20T13:24:46.243Z,7.30
2019-02-20T13:27:22.492Z,7.72
2019-02-20T13:29:45.083Z,7.67
2019-02-20T13:32:13.684Z,8.00
2019-02-20T13:34:42.147Z,8.37
2019-02-20T13:37:10.630Z,8.47
2019-02-20T13:39:39.153Z,6.47
2019-02-20T13:42:07.675Z,6.27
2019-02-20T13:44:36.550Z,6.80
2019-02-20T13:47:05.147Z,7.97
2019-02-20T13:49:33.759Z,7.50
2019-02-20T13:52:02.385Z,7.63
2019-02-20T13:54:30.923Z,7.53
2019-02-20T13:57:01.955Z,6.37
2019-02-20T13:59:29.658Z,6.67
2019-02-20T14:01:58.494Z,7.20
2019-02-20T14:04:26.949Z,7.07
2019-02-20T14:06:55.700Z,7.30
2019-02-20T14:09:24.224Z,6.23
2019-02-20T14:11:52.815Z,6.50
2019-02-20T14:14:21.405Z,6.33
2019-02-20T14:16:49.931Z,6.53
2019-02-20T14:19:18.452Z,6.20
2019-02-20T14:21:47.004Z,5.67
2019-02-20T14:24:15.557Z,6.17
2019-02-20T14:26:44.083Z,6.65
2019-02-20T14:29:12.640Z,7.67
2019-02-20T14:31:42.772Z,6.55
2019-02-20T14:34:11.352Z,6.40
2019-02-20T14:36:39.907Z,6.35
2019-02-20T14:39:08.516Z,7.00
2019-02-20T14:41:37.049Z,7.70
2019-02-20T14:44:05.667Z,7.40
2019-02-20T14:46:34.191Z,8.20
2019-02-20T14:49:02.723Z,7.73
2019-02-20T14:51:31.643Z,6.83
2019-02-20T14:54:00.184Z,7.67
2019-02-20T14:56:28.745Z,7.60
2019-02-20T14:58:57.467Z,6.80
2019-02-20T15:01:26.000Z,7.53
2019-02-20T15:03:54.552Z,7.47
2019-02-20T15:06:23.118Z,6.87
2019-02-20T15:08:51.648Z,8.00
2019-02-20T15:11:20.259Z,7.50
2019-02-20T15:13:48.935Z,7.13
2019-02-20T15:16:17.538Z,6.33
2019-02-20T15:18:46.113Z,7.17
2019-02-20T15:21:14.672Z,6.43
2019-02-20T15:23:43.499Z,7.00
2019-02-20T15:26:12.095Z,7.00
2019-02-20T15:28:40.819Z,6.60
2019-02-20T15:31:09.416Z,6.87
2019-02-20T15:33:38.114Z,7.07
2019-02-20T15:36:07.023Z,5.80
2019-02-20T15:38:35.563Z,6.20
2019-02-20T15:41:04.363Z,5.60
2019-02-20T15:43:33.119Z,6.00
2019-02-20T15:46:01.722Z,6.40
2019-02-20T15:48:30.244Z,5.40
2019-02-20T15:50:58.886Z,5.10
2019-02-20T15:53:27.419Z,5.73
2019-02-20T15:55:55.962Z,6.33
2019-02-20T15:58:24.506Z,5.10
2019-02-20T16:00:53.046Z,5.07
2019-02-20T16:03:21.667Z,6.47
2019-02-20T16:05:50.215Z,6.07
2019-02-20T16:08:18.848Z,5.00
2019-02-20T16:10:47.444Z,5.70
2019-02-20T16:13:16.511Z,5.63
2019-02-20T16:15:45.036Z,5.73
2019-02-20T16:18:13.567Z,5.83
2019-02-20T16:20:42.205Z,5.03
2019-02-20T16:23:10.728Z,5.67
2019-02-20T16:25:39.267Z,5.10
2019-02-20T16:28:08.172Z,5.40
2019-02-20T16:30:36.977Z,4.80
2019-02-20T16:33:05.514Z,5.77
2019-02-20T16:35:34.150Z,5.97
2019-02-20T16:38:02.671Z,5.70
2019-02-20T16:40:34.084Z,5.97
2019-02-20T16:43:03.843Z,6.30
2019-02-20T16:45:32.897Z,5.30
2019-02-20T16:48:01.426Z,5.37
2019-02-20T16:50:30.042Z,5.67
2019-02-20T16:52:58.567Z,6.97
2019-02-20T16:55:27.091Z,7.73
2019-02-20T16:57:56.886Z,6.73
2019-02-20T17:00:25.708Z,7.30
2019-02-20T17:02:54.602Z,8.27
2019-02-20T17:05:23.160Z,7.40
2019-02-20T17:07:51.700Z,7.87
2019-02-20T17:10:20.296Z,7.03
2019-02-20T17:12:48.955Z,7.60
2019-02-20T17:15:18.033Z,8.53
2019-02-20T17:17:47.302Z,8.30
2019-02-20T17:20:18.075Z,7.27
2019-02-20T17:22:46.941Z,7.60
2019-02-20T17:25:16.571Z,8.63
2019-02-20T17:27:45.303Z,8.80
2019-02-20T17:30:15.870Z,8.50
2019-02-20T17:32:44.941Z,9.27
2019-02-20T17:35:13.722Z,9.23
2019-02-20T17:37:42.315Z,9.33
2019-02-20T17:40:11.891Z,9.20
2019-02-20T17:42:40.618Z,9.93
2019-02-20T17:45:16.383Z,9.87
2019-02-20T17:47:45.251Z,10.87
2019-02-20T17:50:24.688Z,10.07
2019-02-20T17:52:53.436Z,10.00
2019-02-20T17:55:22.035Z,10.53
2019-02-20T17:57:50.559Z,10.17
2019-02-20T18:00:23.707Z,10.67
2019-02-20T18:02:52.170Z,10.10
2019-02-20T18:05:20.706Z,10.67
2019-02-20T18:07:51.871Z,10.47
2019-02-20T18:10:19.599Z,10.27
2019-02-20T18:12:48.061Z,11.37
2019-02-20T18:15:16.548Z,11.13
2019-02-20T18:17:45.081Z,10.77
2019-02-20T18:20:13.752Z,10.23
2019-02-20T18:22:43.775Z,8.87
2019-02-20T18:25:12.943Z,8.70
2019-02-20T18:27:41.460Z,7.93
2019-02-20T18:30:12.341Z,7.57
2019-02-20T18:32:40.821Z,7.17
2019-02-20T18:35:17.214Z,10.20
2019-02-20T18:37:45.668Z,9.83
2019-02-20T18:40:17.642Z,9.73
2019-02-20T18:42:46.592Z,10.33
2019-02-20T18:45:15.888Z,12.03
2019-02-20T18:47:44.542Z,11.00
2019-02-20T18:50:16.680Z,12.10
2019-02-20T18:52:45.373Z,15.37
2019-02-20T18:55:14.488Z,15.53
2019-02-20T18:57:43.491Z,15.50
2019-02-20T19:00:17.984Z,13.70
2019-02-20T19:02:46.930Z,11.77
2019-02-20T19:05:15.813Z,11.00
2019-02-20T19:07:44.348Z,9.83
2019-02-20T19:10:25.104Z,9.87
2019-02-20T19:13:11.715Z,9.17
2019-02-20T19:15:46.338Z,8.90
2019-02-20T19:18:23.756Z,9.00
2019-02-20T19:21:16.818Z,9.67
2019-02-20T19:24:07.857Z,10.23
2019-02-20T19:26:51.532Z,9.53
2019-02-20T19:29:26.043Z,13.23
2019-02-20T19:32:26.533Z,13.63
2019-02-20T19:35:10.171Z,14.03
2019-02-20T19:38:06.235Z,14.57
2019-02-20T19:40:49.912Z,14.20
2019-02-20T19:43:30.223Z,14.47
2019-02-20T19:46:13.553Z,16.10
2019-02-20T19:48:54.376Z,16.93
2019-02-20T19:51:44.377Z,16.63
2019-02-20T19:54:22.274Z,17.70
2019-02-20T19:56:59.940Z,18.60
2019-02-20T19:59:46.845Z,17.63
2019-02-20T20:02:41.008Z,17.77
2019-02-20T20:05:22.522Z,18.60
2019-02-20T20:07:54.392Z,18.73
2019-02-20T20:10:40.834Z,18.97
2019-02-20T20:13:33.756Z,17.57
2019-02-20T20:16:11.574Z,16.83
2019-02-20T20:18:46.083Z,15.67
2019-02-20T20:21:26.265Z,14.60
2019-02-20T20:24:32.516Z,14.47
2019-02-20T20:27:18.997Z,13.90
2019-02-20T20:30:14.801Z,13.37
2019-02-20T20:32:56.401Z,13.13
2019-02-20T20:35:43.292Z,12.80
2019-02-20T20:38:39.046Z,11.50
2019-02-20T20:41:33.174Z,12.30
2019-02-20T20:44:10.547Z,12.07
2019-02-20T20:46:59.280Z,13.50
2019-02-20T20:49:39.731Z,12.83
2019-02-20T20:52:30.679Z,12.93
2019-02-20T20:55:17.071Z,13.30
2019-02-20T20:58:08.275Z,13.93
2019-02-20T21:00:42.579Z,14.10
2019-02-20T21:03:14.189Z,14.00
2019-02-20T21:05:45.739Z,15.50
2019-02-20T21:08:22.998Z,15.10
2019-02-20T21:11:11.235Z,14.37
2019-02-20T21:14:07.231Z,13.47
2019-02-20T21:16:47.655Z,13.27
2019-02-20T21:19:34.475Z,15.43
2019-02-20T21:22:25.462Z,13.97
2019-02-20T21:25:14.419Z,16.73
2019-02-20T21:27:57.657Z,16.17
2019-02-20T21:30:50.406Z,14.67
2019-02-20T21:33:24.923Z,16.20
2019-02-20T21:36:02.260Z,14.23
2019-02-20T21:38:50.571Z,13.60
2019-02-20T21:41:28.182Z,15.67
2019-02-20T21:44:05.284Z,15.60
2019-02-20T21:47:09.744Z,16.20
2019-02-20T21:49:56.337Z,15.93
2019-02-20T21:52:57.943Z,16.10
2019-02-20T21:55:38.266Z,15.67
2019-02-20T21:58:37.513Z,15.43
2019-02-20T22:01:15.030Z,14.63
2019-02-20T22:04:19.857Z,13.97
2019-02-20T22:07:10.907Z,16.17
2019-02-20T22:09:42.856Z,15.80
2019-02-20T22:12:25.932Z,16.30
2019-02-20T22:15:06.479Z,17.90
2019-02-20T22:17:56.126Z,17.23
2019-02-20T22:21:03.473Z,17.53
2019-02-20T22:23:46.910Z,17.47
2019-02-20T22:26:35.212Z,16.03
2019-02-20T22:29:35.342Z,19.70
2019-02-20T22:32:15.807Z,21.77
2019-02-20T22:34:50.396Z,20.47
2019-02-20T22:37:24.699Z,20.50
2019-02-20T22:40:12.815Z,19.40
2019-02-20T22:43:02.654Z,18.80
2019-02-20T22:45:40.408Z,18.23
2019-02-20T22:48:28.673Z,16.77
2019-02-20T22:51:18.326Z,17.90
2019-02-20T22:54:07.993Z,18.33
2019-02-20T22:56:51.384Z,17.37
2019-02-20T22:59:34.916Z,17.20
2019-02-20T23:02:18.337Z,16.83
2019-02-20T23:04:58.770Z,16.57
2019-02-20T23:07:36.284Z,17.23
2019-02-20T23:10:24.438Z,18.33
2019-02-20T23:12:59.083Z,17.00
2019-02-20T23:15:27.552Z,18.03
2019-02-20T23:17:56.048Z,18.03
2019-02-20T23:20:24.613Z,18.73
2019-02-20T23:22:53.155Z,18.87
2019-02-20T23:25:22.132Z,18.27
2019-02-20T23:27:50.729Z,17.73
2019-02-20T23:30:39.036Z,17.73
2019-02-20T23:33:07.756Z,17.80
2019-02-20T23:35:36.212Z,17.03
2019-02-20T23:38:05.035Z,17.27
2019-02-20T23:40:33.484Z,17.07
2019-02-20T23:43:01.964Z,17.00
2019-02-20T23:45:30.511Z,17.43
2019-02-20T23:47:58.963Z,18.10
2019-02-20T23:50:27.487Z,18.40
2019-02-20T23:52:55.966Z,20.33
2019-02-20T23:55:24.418Z,19.90
2019-02-20T23:57:52.942Z,17.10
